sensor_id;sensor_type;location;lat;lon;timestamp;pressure;altitude;pressure_sealevel;temperature
71630;BMP280;59479;51.902;8.212;2023-02-13T00:00:23;103253.03;;;10.22
71630;BMP280;59479;51.902;8.212;2023-02-13T00:02:48;103244.72;;;10.25
71630;BMP280;59479;51.902;8.212;2023-02-13T00:05:14;103256.44;;;10.24
71630;BMP280;59479;51.902;8.212;2023-02-13T00:07:39;103249.16;;;10.30
71630;BMP280;59479;51.902;8.212;2023-02-13T00:10:05;103241.22;;;10.21
71630;BMP280;59479;51.902;8.212;2023-02-13T00:12:31;103243.59;;;10.18
71630;BMP280;59479;51.902;8.212;2023-02-13T00:14:57;103242.63;;;10.15
71630;BMP280;59479;51.902;8.212;2023-02-13T00:17:23;103233.50;;;10.17
71630;BMP280;59479;51.902;8.212;2023-02-13T00:19:48;103231.72;;;10.14
71630;BMP280;59479;51.902;8.212;2023-02-13T00:22:14;103231.25;;;10.23
71630;BMP280;59479;51.902;8.212;2023-02-13T00:24:40;103232.78;;;10.19
71630;BMP280;59479;51.902;8.212;2023-02-13T00:27:06;103229.59;;;10.23
71630;BMP280;59479;51.902;8.212;2023-02-13T00:29:31;103231.94;;;10.19
71630;BMP280;59479;51.902;8.212;2023-02-13T00:31:57;103231.28;;;10.04
71630;BMP280;59479;51.902;8.212;2023-02-13T00:34:22;103227.22;;;10.07
71630;BMP280;59479;51.902;8.212;2023-02-13T00:36:48;103236.81;;;10.16
71630;BMP280;59479;51.902;8.212;2023-02-13T00:39:13;103239.13;;;10.11
71630;BMP280;59479;51.902;8.212;2023-02-13T00:41:38;103239.41;;;10.17
71630;BMP280;59479;51.902;8.212;2023-02-13T00:44:04;103231.59;;;10.11
71630;BMP280;59479;51.902;8.212;2023-02-13T00:46:29;103239.94;;;10.10
71630;BMP280;59479;51.902;8.212;2023-02-13T00:48:54;103229.31;;;9.97
71630;BMP280;59479;51.902;8.212;2023-02-13T00:51:20;103235.31;;;10.01
71630;BMP280;59479;51.902;8.212;2023-02-13T00:53:45;103232.25;;;10.07
71630;BMP280;59479;51.902;8.212;2023-02-13T00:56:10;103227.22;;;10.07
71630;BMP280;59479;51.902;8.212;2023-02-13T00:58:36;103226.25;;;10.04
71630;BMP280;59479;51.902;8.212;2023-02-13T01:01:02;103218.38;;;9.97
71630;BMP280;59479;51.902;8.212;2023-02-13T01:03:27;103228.75;;;10.04
71630;BMP280;59479;51.902;8.212;2023-02-13T01:05:54;103227.44;;;9.93
71630;BMP280;59479;51.902;8.212;2023-02-13T01:08:20;103225.13;;;9.98
71630;BMP280;59479;51.902;8.212;2023-02-13T01:10:46;103240.06;;;9.95
71630;BMP280;59479;51.902;8.212;2023-02-13T01:13:14;103237.31;;;9.90
71630;BMP280;59479;51.902;8.212;2023-02-13T01:15:40;103224.97;;;9.95
71630;BMP280;59479;51.902;8.212;2023-02-13T01:18:06;103225.25;;;10.01
71630;BMP280;59479;51.902;8.212;2023-02-13T01:20:32;103222.81;;;10.02
71630;BMP280;59479;51.902;8.212;2023-02-13T01:22:57;103226.88;;;9.81
71630;BMP280;59479;51.902;8.212;2023-02-13T01:25:23;103226.34;;;9.88
71630;BMP280;59479;51.902;8.212;2023-02-13T01:27:49;103230.94;;;9.97
71630;BMP280;59479;51.902;8.212;2023-02-13T01:30:15;103223.81;;;9.88
71630;BMP280;59479;51.902;8.212;2023-02-13T01:32:43;103219.13;;;9.94
71630;BMP280;59479;51.902;8.212;2023-02-13T01:35:11;103234.75;;;9.89
71630;BMP280;59479;51.902;8.212;2023-02-13T01:37:37;103222.41;;;9.93
71630;BMP280;59479;51.902;8.212;2023-02-13T01:40:04;103228.00;;;9.88
71630;BMP280;59479;51.902;8.212;2023-02-13T01:42:32;103223.13;;;9.91
71630;BMP280;59479;51.902;8.212;2023-02-13T01:45:00;103212.72;;;9.83
71630;BMP280;59479;51.902;8.212;2023-02-13T01:47:40;103222.44;;;9.76
71630;BMP280;59479;51.902;8.212;2023-02-13T01:53:08;103209.88;;;9.76
71630;BMP280;59479;51.902;8.212;2023-02-13T01:55:38;103204.88;;;9.76
71630;BMP280;59479;51.902;8.212;2023-02-13T01:58:08;103212.53;;;9.79
71630;BMP280;59479;51.902;8.212;2023-02-13T02:00:36;103208.50;;;9.82
71630;BMP280;59479;51.902;8.212;2023-02-13T02:03:10;103211.78;;;9.81
71630;BMP280;59479;51.902;8.212;2023-02-13T02:05:38;103202.75;;;9.85
71630;BMP280;59479;51.902;8.212;2023-02-13T02:08:07;103201.81;;;9.83
71630;BMP280;59479;51.902;8.212;2023-02-13T02:10:33;103207.81;;;9.86
71630;BMP280;59479;51.902;8.212;2023-02-13T02:13:15;103214.00;;;9.93
71630;BMP280;59479;51.902;8.212;2023-02-13T02:15:42;103202.44;;;9.96
71630;BMP280;59479;51.902;8.212;2023-02-13T02:18:21;103198.16;;;9.94
71630;BMP280;59479;51.902;8.212;2023-02-13T02:24:33;103198.16;;;9.94
71630;BMP280;59479;51.902;8.212;2023-02-13T02:27:13;103197.84;;;9.88
71630;BMP280;59479;51.902;8.212;2023-02-13T02:29:56;103197.91;;;9.89
71630;BMP280;59479;51.902;8.212;2023-02-13T02:38:13;103198.56;;;9.85
71630;BMP280;59479;51.902;8.212;2023-02-13T02:40:55;103185.91;;;9.82
71630;BMP280;59479;51.902;8.212;2023-02-13T02:44:14;103181.44;;;9.77
71630;BMP280;59479;51.902;8.212;2023-02-13T02:46:39;103176.94;;;9.70
71630;BMP280;59479;51.902;8.212;2023-02-13T02:49:32;103181.34;;;9.74
71630;BMP280;59479;51.902;8.212;2023-02-13T02:52:26;103176.38;;;9.75
71630;BMP280;59479;51.902;8.212;2023-02-13T02:55:03;103172.22;;;9.76
71630;BMP280;59479;51.902;8.212;2023-02-13T02:57:37;103174.97;;;9.82
71630;BMP280;59479;51.902;8.212;2023-02-13T03:00:24;103176.69;;;9.83
71630;BMP280;59479;51.902;8.212;2023-02-13T03:03:14;103175.50;;;9.75
71630;BMP280;59479;51.902;8.212;2023-02-13T03:06:01;103164.00;;;9.80
71630;BMP280;59479;51.902;8.212;2023-02-13T03:08:51;103168.41;;;9.85
71630;BMP280;59479;51.902;8.212;2023-02-13T03:11:36;103163.84;;;9.77
71630;BMP280;59479;51.902;8.212;2023-02-13T03:14:21;103171.59;;;9.81
71630;BMP280;59479;51.902;8.212;2023-02-13T03:16:49;103170.88;;;9.84
71630;BMP280;59479;51.902;8.212;2023-02-13T03:19:42;103166.91;;;9.89
71630;BMP280;59479;51.902;8.212;2023-02-13T03:22:41;103167.38;;;9.80
71630;BMP280;59479;51.902;8.212;2023-02-13T03:25:28;103164.75;;;9.77
71630;BMP280;59479;51.902;8.212;2023-02-13T03:31:22;103164.81;;;9.79
71630;BMP280;59479;51.902;8.212;2023-02-13T03:34:04;103167.13;;;9.74
71630;BMP280;59479;51.902;8.212;2023-02-13T03:39:43;103169.63;;;9.74
71630;BMP280;59479;51.902;8.212;2023-02-13T03:42:27;103167.03;;;9.73
71630;BMP280;59479;51.902;8.212;2023-02-13T03:44:59;103170.47;;;9.75
71630;BMP280;59479;51.902;8.212;2023-02-13T03:47:46;103165.88;;;9.84
71630;BMP280;59479;51.902;8.212;2023-02-13T03:50:14;103165.59;;;9.78
71630;BMP280;59479;51.902;8.212;2023-02-13T03:52:54;103175.78;;;9.81
71630;BMP280;59479;51.902;8.212;2023-02-13T03:55:24;103180.13;;;9.85
71630;BMP280;59479;51.902;8.212;2023-02-13T03:58:14;103171.75;;;9.84
71630;BMP280;59479;51.902;8.212;2023-02-13T04:01:00;103164.91;;;9.82
71630;BMP280;59479;51.902;8.212;2023-02-13T04:03:41;103163.84;;;9.77
71630;BMP280;59479;51.902;8.212;2023-02-13T04:06:12;103174.19;;;9.83
71630;BMP280;59479;51.902;8.212;2023-02-13T04:08:38;103182.56;;;9.83
71630;BMP280;59479;51.902;8.212;2023-02-13T04:13:47;103179.94;;;9.80
71630;BMP280;59479;51.902;8.212;2023-02-13T04:16:18;103179.22;;;9.83
71630;BMP280;59479;51.902;8.212;2023-02-13T04:18:45;103188.97;;;9.77
71630;BMP280;59479;51.902;8.212;2023-02-13T04:21:11;103180.66;;;9.78
71630;BMP280;59479;51.902;8.212;2023-02-13T04:23:37;103178.81;;;9.74
71630;BMP280;59479;51.902;8.212;2023-02-13T04:26:06;103176.41;;;9.77
71630;BMP280;59479;51.902;8.212;2023-02-13T04:28:32;103167.31;;;9.79
71630;BMP280;59479;51.902;8.212;2023-02-13T04:30:57;103173.41;;;9.84
71630;BMP280;59479;51.902;8.212;2023-02-13T04:33:23;103176.03;;;9.87
71630;BMP280;59479;51.902;8.212;2023-02-13T04:35:48;103181.19;;;9.90
71630;BMP280;59479;51.902;8.212;2023-02-13T04:38:13;103177.75;;;9.88
71630;BMP280;59479;51.902;8.212;2023-02-13T04:40:39;103175.31;;;9.89
71630;BMP280;59479;51.902;8.212;2023-02-13T04:43:04;103175.31;;;9.89
71630;BMP280;59479;51.902;8.212;2023-02-13T04:45:30;103174.50;;;9.90
71630;BMP280;59479;51.902;8.212;2023-02-13T04:47:56;103168.00;;;9.94
71630;BMP280;59479;51.902;8.212;2023-02-13T04:50:22;103171.13;;;9.90
71630;BMP280;59479;51.902;8.212;2023-02-13T04:52:52;103173.56;;;9.88
71630;BMP280;59479;51.902;8.212;2023-02-13T04:55:17;103162.59;;;9.86
71630;BMP280;59479;51.902;8.212;2023-02-13T04:57:43;103160.09;;;9.86
71630;BMP280;59479;51.902;8.212;2023-02-13T05:00:09;103166.09;;;9.90
71630;BMP280;59479;51.902;8.212;2023-02-13T05:02:35;103163.84;;;9.94
71630;BMP280;59479;51.902;8.212;2023-02-13T05:05:01;103164.69;;;9.95
71630;BMP280;59479;51.902;8.212;2023-02-13T05:07:26;103167.03;;;9.92
71630;BMP280;59479;51.902;8.212;2023-02-13T05:09:52;103169.44;;;9.89
71630;BMP280;59479;51.902;8.212;2023-02-13T05:12:17;103167.84;;;9.91
71630;BMP280;59479;51.902;8.212;2023-02-13T05:14:43;103169.28;;;9.86
71630;BMP280;59479;51.902;8.212;2023-02-13T05:17:08;103165.13;;;9.86
71630;BMP280;59479;51.902;8.212;2023-02-13T05:19:34;103168.41;;;9.85
71630;BMP280;59479;51.902;8.212;2023-02-13T05:22:00;103169.91;;;9.80
71630;BMP280;59479;51.902;8.212;2023-02-13T05:24:44;103175.72;;;9.79
71630;BMP280;59479;51.902;8.212;2023-02-13T05:27:10;103172.44;;;9.82
71630;BMP280;59479;51.902;8.212;2023-02-13T05:29:36;103180.81;;;9.81
71630;BMP280;59479;51.902;8.212;2023-02-13T05:32:01;103174.94;;;9.80
71630;BMP280;59479;51.902;8.212;2023-02-13T05:34:27;103175.78;;;9.81
71630;BMP280;59479;51.902;8.212;2023-02-13T05:36:53;103173.19;;;9.79
71630;BMP280;59479;51.902;8.212;2023-02-13T05:39:20;103172.34;;;9.79
71630;BMP280;59479;51.902;8.212;2023-02-13T05:41:47;103183.19;;;9.78
71630;BMP280;59479;51.902;8.212;2023-02-13T05:44:14;103174.94;;;9.80
71630;BMP280;59479;51.902;8.212;2023-02-13T05:46:40;103180.88;;;9.82
71630;BMP280;59479;51.902;8.212;2023-02-13T05:49:06;103179.22;;;9.83
71630;BMP280;59479;51.902;8.212;2023-02-13T05:51:32;103185.97;;;9.84
71630;BMP280;59479;51.902;8.212;2023-02-13T05:53:57;103184.97;;;9.80
71630;BMP280;59479;51.902;8.212;2023-02-13T05:56:23;103182.41;;;9.79
71630;BMP280;59479;51.902;8.212;2023-02-13T05:58:52;103178.94;;;9.77
71630;BMP280;59479;51.902;8.212;2023-02-13T06:01:18;103177.22;;;9.76
71630;BMP280;59479;51.902;8.212;2023-02-13T06:03:43;103185.56;;;9.75
71630;BMP280;59479;51.902;8.212;2023-02-13T06:06:08;103183.09;;;9.76
71630;BMP280;59479;51.902;8.212;2023-02-13T06:08:34;103181.59;;;9.80
71630;BMP280;59479;51.902;8.212;2023-02-13T06:10:59;103185.69;;;9.78
71630;BMP280;59479;51.902;8.212;2023-02-13T06:13:24;103185.75;;;9.79
71630;BMP280;59479;51.902;8.212;2023-02-13T06:15:50;103184.97;;;9.80
71630;BMP280;59479;51.902;8.212;2023-02-13T06:18:15;103183.25;;;9.79
71630;BMP280;59479;51.902;8.212;2023-02-13T06:20:41;103185.69;;;9.78
71630;BMP280;59479;51.902;8.212;2023-02-13T06:23:07;103188.19;;;9.78
71630;BMP280;59479;51.902;8.212;2023-02-13T06:25:38;103177.22;;;9.76
71630;BMP280;59479;51.902;8.212;2023-02-13T06:28:04;103190.56;;;9.75
71630;BMP280;59479;51.902;8.212;2023-02-13T06:30:30;103188.13;;;9.76
71630;BMP280;59479;51.902;8.212;2023-02-13T06:32:56;103192.31;;;9.76
71630;BMP280;59479;51.902;8.212;2023-02-13T06:35:22;103192.44;;;9.79
71630;BMP280;59479;51.902;8.212;2023-02-13T06:37:47;103200.81;;;9.79
71630;BMP280;59479;51.902;8.212;2023-02-13T06:40:14;103199.97;;;9.79
71630;BMP280;59479;51.902;8.212;2023-02-13T06:42:44;103206.69;;;9.80
71630;BMP280;59479;51.902;8.212;2023-02-13T06:45:10;103204.19;;;9.80
71630;BMP280;59479;51.902;8.212;2023-02-13T06:47:44;103206.56;;;9.77
71630;BMP280;59479;51.902;8.212;2023-02-13T06:50:11;103212.47;;;9.77
71630;BMP280;59479;51.902;8.212;2023-02-13T06:52:37;103209.06;;;9.77
71630;BMP280;59479;51.902;8.212;2023-02-13T06:55:03;103218.28;;;9.76
71630;BMP280;59479;51.902;8.212;2023-02-13T06:57:29;103214.16;;;9.78
71630;BMP280;59479;51.902;8.212;2023-02-13T06:59:58;103219.41;;;9.83
71630;BMP280;59479;51.902;8.212;2023-02-13T07:02:23;103233.50;;;9.79
71630;BMP280;59479;51.902;8.212;2023-02-13T07:04:48;103226.63;;;9.75
71630;BMP280;59479;51.902;8.212;2023-02-13T07:07:13;103236.06;;;9.81
71630;BMP280;59479;51.902;8.212;2023-02-13T07:09:39;103232.56;;;9.77
71630;BMP280;59479;51.902;8.212;2023-02-13T07:12:06;103221.00;;;9.81
71630;BMP280;59479;51.902;8.212;2023-02-13T07:14:31;103238.50;;;9.79
71630;BMP280;59479;51.902;8.212;2023-02-13T07:16:57;103234.19;;;9.77
71630;BMP280;59479;51.902;8.212;2023-02-13T07:19:22;103234.19;;;9.77
71630;BMP280;59479;51.902;8.212;2023-02-13T07:21:47;103240.66;;;9.72
71630;BMP280;59479;51.902;8.212;2023-02-13T07:24:13;103234.25;;;9.60
71630;BMP280;59479;51.902;8.212;2023-02-13T07:26:38;103232.59;;;9.60
71630;BMP280;59479;51.902;8.212;2023-02-13T07:29:03;103231.53;;;9.55
71630;BMP280;59479;51.902;8.212;2023-02-13T07:31:32;103232.75;;;9.63
71630;BMP280;59479;51.902;8.212;2023-02-13T07:33:58;103237.09;;;9.67
71630;BMP280;59479;51.902;8.212;2023-02-13T07:36:24;103233.22;;;9.73
71630;BMP280;59479;51.902;8.212;2023-02-13T07:38:49;103238.03;;;9.69
71630;BMP280;59479;51.902;8.212;2023-02-13T07:41:15;103242.41;;;9.73
71630;BMP280;59479;51.902;8.212;2023-02-13T07:43:43;103243.91;;;9.69
71630;BMP280;59479;51.902;8.212;2023-02-13T07:46:10;103244.22;;;9.58
71630;BMP280;59479;51.902;8.212;2023-02-13T07:48:59;103245.41;;;9.47
71630;BMP280;59479;51.902;8.212;2023-02-13T07:51:24;103247.03;;;9.47
71630;BMP280;59479;51.902;8.212;2023-02-13T07:53:51;103249.38;;;9.42
71630;BMP280;59479;51.902;8.212;2023-02-13T07:56:27;103249.78;;;9.51
71630;BMP280;59479;51.902;8.212;2023-02-13T07:59:03;103244.69;;;9.50
71630;BMP280;59479;51.902;8.212;2023-02-13T08:01:29;103243.31;;;9.56
71630;BMP280;59479;51.902;8.212;2023-02-13T08:04:05;103245.97;;;9.59
71630;BMP280;59479;51.902;8.212;2023-02-13T08:06:34;103242.00;;;9.64
71630;BMP280;59479;51.902;8.212;2023-02-13T08:09:03;103244.44;;;9.63
71630;BMP280;59479;51.902;8.212;2023-02-13T08:14:35;103244.47;;;9.45
71630;BMP280;59479;51.902;8.212;2023-02-13T08:17:03;103254.88;;;9.53
71630;BMP280;59479;51.902;8.212;2023-02-13T08:19:35;103249.19;;;9.57
71630;BMP280;59479;51.902;8.212;2023-02-13T08:22:08;103244.00;;;9.54
71630;BMP280;59479;51.902;8.212;2023-02-13T08:24:36;103255.72;;;9.53
71630;BMP280;59479;51.902;8.212;2023-02-13T08:27:12;103256.72;;;9.57
71630;BMP280;59479;51.902;8.212;2023-02-13T08:29:38;103244.69;;;9.50
71630;BMP280;59479;51.902;8.212;2023-02-13T08:32:09;103249.78;;;9.51
71630;BMP280;59479;51.902;8.212;2023-02-13T08:34:35;103240.94;;;9.59
71630;BMP280;59479;51.902;8.212;2023-02-13T08:37:02;103246.03;;;9.61
71630;BMP280;59479;51.902;8.212;2023-02-13T08:39:30;103250.31;;;9.63
71630;BMP280;59479;51.902;8.212;2023-02-13T08:42:22;103245.31;;;9.63
71630;BMP280;59479;51.902;8.212;2023-02-13T08:44:47;103262.22;;;9.67
71630;BMP280;59479;51.902;8.212;2023-02-13T08:47:13;103253.81;;;9.66
71630;BMP280;59479;51.902;8.212;2023-02-13T08:52:28;103243.44;;;9.59
71630;BMP280;59479;51.902;8.212;2023-02-13T08:55:06;103247.56;;;9.57
71630;BMP280;59479;51.902;8.212;2023-02-13T08:57:40;103253.50;;;9.59
71630;BMP280;59479;51.902;8.212;2023-02-13T09:00:24;103251.06;;;9.61
71630;BMP280;59479;51.902;8.212;2023-02-13T09:02:49;103251.75;;;9.58
71630;BMP280;59479;51.902;8.212;2023-02-13T09:05:15;103260.38;;;9.63
71630;BMP280;59479;51.902;8.212;2023-02-13T09:07:40;103259.97;;;9.73
71630;BMP280;59479;51.902;8.212;2023-02-13T09:10:06;103256.47;;;9.69
71630;BMP280;59479;51.902;8.212;2023-02-13T09:12:31;103257.47;;;9.73
71630;BMP280;59479;51.902;8.212;2023-02-13T09:14:57;103263.63;;;9.79
71630;BMP280;59479;51.902;8.212;2023-02-13T09:17:22;103267.66;;;9.76
71630;BMP280;59479;51.902;8.212;2023-02-13T09:19:47;103264.63;;;9.83
71630;BMP280;59479;51.902;8.212;2023-02-13T09:22:13;103266.28;;;9.82
71630;BMP280;59479;51.902;8.212;2023-02-13T09:24:41;103265.75;;;9.89
71630;BMP280;59479;51.902;8.212;2023-02-13T09:27:06;103262.59;;;9.93
71630;BMP280;59479;51.902;8.212;2023-02-13T09:29:33;103258.22;;;9.89
71630;BMP280;59479;51.902;8.212;2023-02-13T09:31:59;103245.16;;;9.96
71630;BMP280;59479;51.902;8.212;2023-02-13T09:34:24;103257.66;;;9.95
71630;BMP280;59479;51.902;8.212;2023-02-13T09:36:51;103248.53;;;9.97
71630;BMP280;59479;51.902;8.212;2023-02-13T09:39:17;103259.88;;;9.89
71630;BMP280;59479;51.902;8.212;2023-02-13T09:41:44;103262.00;;;9.99
71630;BMP280;59479;51.902;8.212;2023-02-13T09:44:15;103256.72;;;9.93
71630;BMP280;59479;51.902;8.212;2023-02-13T09:47:28;103244.75;;;10.06
71630;BMP280;59479;51.902;8.212;2023-02-13T09:52:33;103239.13;;;10.11
71630;BMP280;59479;51.902;8.212;2023-02-13T09:55:00;103240.19;;;10.16
71630;BMP280;59479;51.902;8.212;2023-02-13T09:57:33;103241.78;;;10.14
71630;BMP280;59479;51.902;8.212;2023-02-13T10:00:18;103248.53;;;10.15
71630;BMP280;59479;51.902;8.212;2023-02-13T10:05:41;103244.09;;;10.29
71630;BMP280;59479;51.902;8.212;2023-02-13T10:08:30;103244.94;;;10.29
71630;BMP280;59479;51.902;8.212;2023-02-13T10:16:28;103255.13;;;10.32
71630;BMP280;59479;51.902;8.212;2023-02-13T10:19:00;103243.47;;;10.34
71630;BMP280;59479;51.902;8.212;2023-02-13T10:21:29;103240.53;;;10.44
71630;BMP280;59479;51.902;8.212;2023-02-13T10:24:38;103249.00;;;10.46
71630;BMP280;59479;51.902;8.212;2023-02-13T10:27:11;103252.63;;;10.32
71630;BMP280;59479;51.902;8.212;2023-02-13T10:29:46;103251.22;;;10.39
71630;BMP280;59479;51.902;8.212;2023-02-13T10:35:19;103258.22;;;10.46
71630;BMP280;59479;51.902;8.212;2023-02-13T10:37:46;103255.78;;;10.47
71630;BMP280;59479;51.902;8.212;2023-02-13T10:40:15;103243.50;;;10.54
71630;BMP280;59479;51.902;8.212;2023-02-13T10:43:28;103250.56;;;10.63
71630;BMP280;59479;51.902;8.212;2023-02-13T10:47:11;103245.78;;;10.69
71630;BMP280;59479;51.902;8.212;2023-02-13T11:03:23;103235.16;;;10.76
71630;BMP280;59479;51.902;8.212;2023-02-13T11:05:50;103237.00;;;10.80
71630;BMP280;59479;51.902;8.212;2023-02-13T11:10:49;103235.19;;;10.97
71630;BMP280;59479;51.902;8.212;2023-02-13T11:13:18;103225.19;;;10.99
71630;BMP280;59479;51.902;8.212;2023-02-13T11:15:56;103222.84;;;11.03
71630;BMP280;59479;51.902;8.212;2023-02-13T11:18:24;103220.44;;;11.06
71630;BMP280;59479;51.902;8.212;2023-02-13T11:21:09;103226.50;;;11.11
71630;BMP280;59479;51.902;8.212;2023-02-13T11:23:43;103221.41;;;11.10
71630;BMP280;59479;51.902;8.212;2023-02-13T11:26:20;103221.59;;;11.14
71630;BMP280;59479;51.902;8.212;2023-02-13T11:28:54;103225.78;;;11.14
71630;BMP280;59479;51.902;8.212;2023-02-13T11:31:31;103223.28;;;11.14
71630;BMP280;59479;51.902;8.212;2023-02-13T11:33:59;103225.16;;;11.19
71630;BMP280;59479;51.902;8.212;2023-02-13T11:36:41;103211.03;;;11.23
71630;BMP280;59479;51.902;8.212;2023-02-13T11:39:17;103218.63;;;11.24
71630;BMP280;59479;51.902;8.212;2023-02-13T11:41:45;103213.47;;;11.21
71630;BMP280;59479;51.902;8.212;2023-02-13T11:44:21;103207.88;;;11.28
71630;BMP280;59479;51.902;8.212;2023-02-13T11:46:50;103205.22;;;11.25
71630;BMP280;59479;51.902;8.212;2023-02-13T11:49:19;103202.75;;;11.27
71630;BMP280;59479;51.902;8.212;2023-02-13T11:51:46;103202.03;;;11.29
71630;BMP280;59479;51.902;8.212;2023-02-13T11:54:24;103204.69;;;11.32
71630;BMP280;59479;51.902;8.212;2023-02-13T11:56:54;103191.00;;;11.26
71630;BMP280;59479;51.902;8.212;2023-02-13T11:59:25;103187.03;;;11.32
71630;BMP280;59479;51.902;8.212;2023-02-13T12:02:12;103181.66;;;11.23
71630;BMP280;59479;51.902;8.212;2023-02-13T12:04:38;103184.94;;;11.21
71630;BMP280;59479;51.902;8.212;2023-02-13T12:09:56;103173.31;;;11.24
71630;BMP280;59479;51.902;8.212;2023-02-13T12:12:39;103177.75;;;11.31
71630;BMP280;59479;51.902;8.212;2023-02-13T12:15:18;103168.28;;;11.24
71630;BMP280;59479;51.902;8.212;2023-02-13T12:17:46;103167.31;;;11.21
71630;BMP280;59479;51.902;8.212;2023-02-13T12:20:15;103165.97;;;11.30
71630;BMP280;59479;51.902;8.212;2023-02-13T12:28:10;103163.22;;;11.24
71630;BMP280;59479;51.902;8.212;2023-02-13T12:36:35;103142.34;;;11.27
71630;BMP280;59479;51.902;8.212;2023-02-13T12:39:29;103144.19;;;11.31
71630;BMP280;59479;51.902;8.212;2023-02-13T12:48:18;103126.72;;;11.13
71630;BMP280;59479;51.902;8.212;2023-02-13T12:58:38;103122.66;;;11.17
71630;BMP280;59479;51.902;8.212;2023-02-13T13:09:17;103114.38;;;11.19
71630;BMP280;59479;51.902;8.212;2023-02-13T13:14:48;103112.09;;;11.03
71630;BMP280;59479;51.902;8.212;2023-02-13T13:19:56;103100.66;;;11.11
71630;BMP280;59479;51.902;8.212;2023-02-13T13:25:24;103098.38;;;11.17
71630;BMP280;59479;51.902;8.212;2023-02-13T13:27:57;103084.56;;;11.08
71630;BMP280;59479;51.902;8.212;2023-02-13T13:30:24;103086.91;;;11.03
71630;BMP280;59479;51.902;8.212;2023-02-13T13:32:57;103088.34;;;11.19
71630;BMP280;59479;51.902;8.212;2023-02-13T13:35:24;103079.19;;;11.21
71630;BMP280;59479;51.902;8.212;2023-02-13T13:38:20;103085.97;;;11.23
71630;BMP280;59479;51.902;8.212;2023-02-13T13:47:01;103078.41;;;11.23
71630;BMP280;59479;51.902;8.212;2023-02-13T13:49:50;103083.41;;;11.22
71630;BMP280;59479;51.902;8.212;2023-02-13T13:52:29;103086.09;;;11.26
71630;BMP280;59479;51.902;8.212;2023-02-13T13:54:56;103085.97;;;11.23
71630;BMP280;59479;51.902;8.212;2023-02-13T14:00:26;103079.66;;;11.34
71630;BMP280;59479;51.902;8.212;2023-02-13T14:05:26;103075.28;;;11.29
71630;BMP280;59479;51.902;8.212;2023-02-13T14:07:55;103076.81;;;11.25
71630;BMP280;59479;51.902;8.212;2023-02-13T14:12:48;103066.59;;;11.44
71630;BMP280;59479;51.902;8.212;2023-02-13T14:18:03;103068.78;;;11.35
71630;BMP280;59479;51.902;8.212;2023-02-13T14:20:41;103069.53;;;11.32
71630;BMP280;59479;51.902;8.212;2023-02-13T14:31:19;103055.50;;;11.39
71630;BMP280;59479;51.902;8.212;2023-02-13T14:33:54;103053.00;;;11.39
71630;BMP280;59479;51.902;8.212;2023-02-13T14:36:22;103049.66;;;11.40
71630;BMP280;59479;51.902;8.212;2023-02-13T14:38:55;103053.88;;;11.41
71630;BMP280;59479;51.902;8.212;2023-02-13T14:44:45;103055.34;;;11.34
71630;BMP280;59479;51.902;8.212;2023-02-13T14:47:34;103046.75;;;11.30
71630;BMP280;59479;51.902;8.212;2023-02-13T14:50:42;103040.22;;;11.34
71630;BMP280;59479;51.902;8.212;2023-02-13T14:53:49;103046.88;;;11.32
71630;BMP280;59479;51.902;8.212;2023-02-13T14:56:18;103038.66;;;11.38
71630;BMP280;59479;51.902;8.212;2023-02-13T14:58:54;103038.41;;;11.31
71630;BMP280;59479;51.902;8.212;2023-02-13T15:01:34;103030.03;;;11.31
71630;BMP280;59479;51.902;8.212;2023-02-13T15:04:30;103024.38;;;11.37
71630;BMP280;59479;51.902;8.212;2023-02-13T15:07:01;103032.56;;;11.31
71630;BMP280;59479;51.902;8.212;2023-02-13T15:09:34;103031.22;;;11.41
71630;BMP280;59479;51.902;8.212;2023-02-13T15:12:03;103034.53;;;11.40
71630;BMP280;59479;51.902;8.212;2023-02-13T15:14:35;103035.31;;;11.37
71630;BMP280;59479;51.902;8.212;2023-02-13T15:19:30;103023.78;;;11.44
71630;BMP280;59479;51.902;8.212;2023-02-13T15:21:59;103024.81;;;11.49
71630;BMP280;59479;51.902;8.212;2023-02-13T15:24:34;103017.31;;;11.50
71630;BMP280;59479;51.902;8.212;2023-02-13T15:27:02;103016.38;;;11.47
71630;BMP280;59479;51.902;8.212;2023-02-13T15:29:29;103016.50;;;11.51
71630;BMP280;59479;51.902;8.212;2023-02-13T15:31:55;103015.59;;;11.49
71630;BMP280;59479;51.902;8.212;2023-02-13T15:34:29;103013.69;;;11.44
71630;BMP280;59479;51.902;8.212;2023-02-13T15:36:56;103012.28;;;11.50
71630;BMP280;59479;51.902;8.212;2023-02-13T15:39:24;103008.19;;;11.54
71630;BMP280;59479;51.902;8.212;2023-02-13T15:41:54;103009.22;;;11.59
71630;BMP280;59479;51.902;8.212;2023-02-13T15:44:23;103008.38;;;11.60
71630;BMP280;59479;51.902;8.212;2023-02-13T15:47:35;103009.91;;;11.55
71630;BMP280;59479;51.902;8.212;2023-02-13T15:49:50;103007.38;;;11.55
71630;BMP280;59479;51.902;8.212;2023-02-13T15:52:29;103003.22;;;11.55
71630;BMP280;59479;51.902;8.212;2023-02-13T15:54:55;103013.31;;;11.57
71630;BMP280;59479;51.902;8.212;2023-02-13T15:57:21;103005.91;;;11.61
71630;BMP280;59479;51.902;8.212;2023-02-13T15:59:48;103008.38;;;11.60
71630;BMP280;59479;51.902;8.212;2023-02-13T16:02:19;103014.25;;;11.59
71630;BMP280;59479;51.902;8.212;2023-02-13T16:04:46;103011.81;;;11.62
71630;BMP280;59479;51.902;8.212;2023-02-13T16:07:13;103016.66;;;11.56
71630;BMP280;59479;51.902;8.212;2023-02-13T16:09:39;103004.78;;;11.52
71630;BMP280;59479;51.902;8.212;2023-02-13T16:12:25;103006.47;;;11.53
71630;BMP280;59479;51.902;8.212;2023-02-13T16:15:00;103004.78;;;11.52
71630;BMP280;59479;51.902;8.212;2023-02-13T16:17:30;103004.78;;;11.52
71630;BMP280;59479;51.902;8.212;2023-02-13T16:19:59;102998.91;;;11.53
71630;BMP280;59479;51.902;8.212;2023-02-13T16:22:36;102997.25;;;11.53
71630;BMP280;59479;51.902;8.212;2023-02-13T16:25:16;102986.16;;;11.48
71630;BMP280;59479;51.902;8.212;2023-02-13T16:27:47;102992.66;;;11.42
71630;BMP280;59479;51.902;8.212;2023-02-13T16:30:35;102983.25;;;11.38
71630;BMP280;59479;51.902;8.212;2023-02-13T16:38:34;102980.22;;;11.23
71630;BMP280;59479;51.902;8.212;2023-02-13T16:46:27;102978.25;;;11.15
71630;BMP280;59479;51.902;8.212;2023-02-13T16:51:49;102994.00;;;11.09
71630;BMP280;59479;51.902;8.212;2023-02-13T16:54:55;102997.25;;;11.05